createdAt,value
2018-02-11T18:58:01.943Z,22.20
2018-02-11T19:03:01.052Z,21.50
2018-02-11T19:05:28.528Z,22.00
2018-02-11T19:08:58.727Z,17.30
2018-02-11T19:11:27.139Z,17.20
2018-02-11T19:13:54.981Z,13.40
2018-02-11T19:16:23.511Z,10.40
2018-02-11T19:18:52.450Z,8.30
2018-02-11T19:21:25.224Z,6.90
2018-02-11T19:23:52.848Z,6.20
2018-02-11T19:26:20.776Z,5.50
2018-02-11T19:28:53.020Z,5.10
2018-02-11T19:31:22.107Z,4.70
2018-02-11T19:33:53.048Z,4.30
2018-02-11T19:36:23.198Z,4.00
2018-02-11T19:38:52.805Z,3.80
2018-02-11T19:41:22.382Z,3.60
2018-02-11T19:43:51.538Z,3.60
2018-02-11T19:46:19.872Z,3.50
2018-02-11T19:48:48.548Z,3.40
2018-02-11T19:51:19.049Z,3.50
2018-02-11T19:53:47.705Z,3.40
2018-02-11T19:56:16.787Z,3.40
2018-02-11T19:58:45.225Z,3.40
2018-02-11T20:01:13.848Z,3.40
2018-02-11T20:03:42.794Z,3.40
2018-02-11T20:06:12.358Z,3.30
2018-02-11T20:08:40.162Z,3.20
2018-02-11T20:11:08.133Z,3.10
2018-02-11T20:13:36.004Z,3.10
2018-02-11T20:16:03.527Z,3.00
2018-02-11T20:18:32.339Z,3.00
2018-02-11T20:21:00.210Z,2.90
2018-02-11T20:23:29.325Z,2.90
2018-02-11T20:25:59.291Z,2.90
2018-02-11T20:28:28.003Z,2.90
2018-02-11T20:30:56.092Z,2.80
2018-02-11T20:33:24.933Z,2.80
2018-02-11T20:35:53.087Z,2.90
2018-02-11T20:38:24.941Z,2.90
2018-02-11T20:41:01.050Z,2.90
2018-02-11T20:43:28.623Z,2.80
2018-02-11T20:45:57.196Z,2.70
2018-02-11T20:48:29.384Z,2.70
2018-02-11T20:50:57.276Z,2.80
2018-02-11T20:53:25.405Z,2.70
2018-02-11T20:55:55.583Z,2.80
2018-02-11T20:58:25.125Z,2.70
2018-02-11T21:00:54.253Z,2.70
2018-02-11T21:03:24.933Z,2.70
2018-02-11T21:05:53.365Z,2.70
2018-02-11T21:08:23.027Z,2.60
2018-02-11T21:10:52.039Z,2.60
2018-02-11T21:13:21.825Z,2.60
2018-02-11T21:15:51.278Z,2.60
2018-02-11T21:18:19.804Z,2.50
2018-02-11T21:20:50.592Z,2.50
2018-02-11T21:23:20.668Z,2.40
2018-02-11T21:25:54.353Z,2.40
2018-02-11T21:28:25.091Z,2.40
2018-02-11T21:30:56.149Z,2.40
2018-02-11T21:33:25.865Z,2.40
2018-02-11T21:35:56.313Z,2.40
2018-02-11T21:41:01.557Z,2.50
2018-02-11T21:43:30.640Z,2.50
2018-02-11T21:46:01.917Z,2.60
2018-02-11T21:48:32.232Z,2.70
2018-02-11T21:51:01.132Z,2.80
2018-02-11T21:55:41.088Z,2.90
2018-02-11T21:58:11.778Z,2.90
2018-02-11T22:00:43.923Z,3.00
2018-02-11T22:03:16.280Z,3.00
2018-02-11T22:05:45.391Z,3.10
2018-02-11T22:08:14.297Z,3.20
2018-02-11T22:10:42.630Z,3.20
2018-02-11T22:13:10.975Z,3.20
2018-02-11T22:15:40.660Z,3.30
2018-02-11T22:18:10.478Z,3.30
2018-02-11T22:20:42.656Z,3.30
2018-02-11T22:23:15.227Z,3.20
2018-02-11T22:25:46.780Z,3.20
2018-02-11T22:28:16.623Z,3.20
2018-02-11T22:30:48.225Z,3.00
2018-02-11T22:33:22.650Z,3.00
2018-02-11T22:35:52.313Z,3.00
2018-02-11T22:38:22.379Z,3.00
2018-02-11T22:40:52.861Z,3.00
2018-02-11T22:43:22.192Z,2.90
2018-02-11T22:45:58.180Z,2.90
2018-02-11T22:48:26.983Z,3.00
2018-02-11T22:50:57.498Z,3.00
2018-02-11T22:53:26.120Z,3.00
2018-02-11T22:55:58.575Z,3.10
2018-02-11T22:58:27.223Z,3.10
2018-02-11T23:00:57.599Z,3.10
2018-02-11T23:05:54.600Z,3.10
2018-02-11T23:08:22.954Z,3.10
2018-02-11T23:10:53.630Z,3.20
2018-02-11T23:13:22.091Z,3.20
2018-02-11T23:15:51.393Z,3.20
2018-02-11T23:18:20.056Z,3.20
2018-02-11T23:20:49.189Z,3.20
2018-02-11T23:23:17.508Z,3.20
2018-02-11T23:25:47.255Z,3.10
2018-02-11T23:28:15.464Z,3.00
2018-02-11T23:30:45.770Z,3.10
2018-02-11T23:33:13.880Z,3.00
2018-02-11T23:35:45.516Z,3.00
2018-02-11T23:38:19.851Z,3.00
2018-02-11T23:40:48.432Z,3.00
2018-02-11T23:43:16.024Z,3.10
2018-02-11T23:45:44.406Z,3.10
2018-02-11T23:48:11.876Z,3.10
2018-02-11T23:50:39.353Z,3.10
2018-02-11T23:53:06.831Z,3.20
2018-02-11T23:55:34.309Z,3.20
2018-02-11T23:58:07.485Z,3.30
